Time,TemperatureF,DewpointF,PressureIn,WindDirection,WindDirectionDegrees,WindSpeedMPH,WindSpeedGustMPH,Humidity,HourlyPrecipIn,Conditions,Clouds,dailyrainin,SoftwareType,DateUTC
2013-11-03 00:00:00,49.0,45.0,-100.00,NE,42,2.0,-999.0,87,0.00,,,-99.99,,2013-11-03 07:00:00,
2013-11-03 00:42:00,49.0,45.0,-100.00,NE,42,2.0,-999.0,87,0.00,,,-99.99,,2013-11-03 07:42:00,
2013-11-03 00:52:00,49.0,45.0,-100.00,NE,42,2.0,-999.0,87,0.00,,,-99.99,,2013-11-03 07:52:00,
2013-11-03 01:00:00,48.0,44.0,-100.00,East,90,3.0,-999.0,87,0.00,,,-99.99,,2013-11-03 08:00:00,
2013-11-03 01:42:00,48.0,44.0,-100.00,East,90,3.0,-999.0,87,0.00,,,-99.99,,2013-11-03 08:42:00,
2013-11-03 01:52:00,48.0,44.0,-100.00,East,90,3.0,-999.0,87,0.00,,,-99.99,,2013-11-03 08:52:00,
2013-11-03 01:00:00,49.0,45.0,-100.00,NNE,26,2.0,-999.0,86,0.00,,,-99.99,,2013-11-03 09:00:00,
2013-11-03 01:42:00,49.0,45.0,-100.00,NNE,26,2.0,-999.0,86,0.00,,,-99.99,,2013-11-03 09:42:00,
2013-11-03 01:53:00,49.0,45.0,-100.00,NNE,26,2.0,-999.0,86,0.00,,,-99.99,,2013-11-03 09:53:00,
2013-11-03 02:00:00,49.0,44.0,-100.00,ENE,73,2.0,-999.0,85,0.00,,,-99.99,,2013-11-03 10:00:00,
2013-11-03 02:42:00,49.0,44.0,-100.00,ENE,73,2.0,-999.0,85,0.00,,,-99.99,,2013-11-03 10:42:00,
2013-11-03 02:53:00,49.0,44.0,-100.00,ENE,73,2.0,-999.0,85,0.00,,,-99.99,,2013-11-03 10:53:00,
2013-11-03 03:00:00,49.0,44.0,-100.00,East,90,5.0,-999.0,80,0.00,,,-99.99,,2013-11-03 11:00:00,
2013-11-03 03:43:00,49.0,44.0,-100.00,East,90,5.0,-999.0,80,0.00,,,-99.99,,2013-11-03 11:43:00,
2013-11-03 03:52:00,49.0,44.0,-100.00,East,90,5.0,-999.0,80,0.00,,,-99.99,,2013-11-03 11:52:00,
2013-11-03 04:00:00,49.0,45.0,-100.00,NE,53,1.0,-999.0,87,0.00,,,-99.99,,2013-11-03 12:00:00,
2013-11-03 04:42:00,49.0,45.0,-100.00,NE,53,1.0,-999.0,87,0.00,,,-99.99,,2013-11-03 12:42:00,
2013-11-03 04:52:00,49.0,45.0,-100.00,NE,53,1.0,-999.0,87,0.00,,,-99.99,,2013-11-03 12:52:00,
2013-11-03 05:00:00,47.0,43.0,-100.00,NE,35,2.0,-999.0,87,0.00,,,-99.99,,2013-11-03 13:00:00,
2013-11-03 05:42:00,47.0,43.0,-100.00,NE,35,2.0,-999.0,87,0.00,,,-99.99,,2013-11-03 13:42:00,
2013-11-03 05:52:00,47.0,43.0,-100.00,NE,35,2.0,-999.0,87,0.00,,,-99.99,,2013-11-03 13:52:00,
2013-11-03 06:00:00,47.0,44.0,-100.00,NE,48,1.0,-999.0,88,0.00,,,-99.99,,2013-11-03 14:00:00,
2013-11-03 06:42:00,47.0,44.0,-100.00,NE,48,1.0,-999.0,88,0.00,,,-99.99,,2013-11-03 14:42:00,
2013-11-03 06:52:00,47.0,44.0,-100.00,NE,48,1.0,-999.0,88,0.00,,,-99.99,,2013-11-03 14:52:00,
2013-11-03 07:00:00,48.0,44.0,-100.00,NNE,31,2.0,-999.0,88,0.00,,,-99.99,,2013-11-03 15:00:00,
2013-11-03 07:43:00,48.0,44.0,-100.00,NNE,31,2.0,-999.0,88,0.00,,,-99.99,,2013-11-03 15:43:00,
2013-11-03 07:53:00,48.0,44.0,-100.00,NNE,31,2.0,-999.0,88,0.00,,,-99.99,,2013-11-03 15:53:00,
2013-11-03 08:00:00,52.0,45.0,-100.00,ENE,68,6.0,-999.0,77,0.00,,,-99.99,,2013-11-03 16:00:00,
2013-11-03 08:43:00,52.0,45.0,-100.00,ENE,68,6.0,-999.0,77,0.00,,,-99.99,,2013-11-03 16:43:00,
2013-11-03 08:53:00,52.0,45.0,-100.00,ENE,68,6.0,-999.0,77,0.00,,,-99.99,,2013-11-03 16:53:00,
2013-11-03 09:00:00,60.0,51.0,-100.00,NE,52,2.0,-999.0,69,0.00,,,-99.99,,2013-11-03 17:00:00,
2013-11-03 09:44:00,60.0,51.0,-100.00,NE,52,2.0,-999.0,69,0.00,,,-99.99,,2013-11-03 17:44:00,
2013-11-03 09:53:00,60.0,51.0,-100.00,NE,52,2.0,-999.0,69,0.00,,,-99.99,,2013-11-03 17:53:00,
2013-11-03 10:00:00,68.0,51.0,-100.00,SW,223,2.0,-999.0,54,0.00,,,-99.99,,2013-11-03 18:00:00,
2013-11-03 10:42:00,68.0,51.0,-100.00,SW,223,2.0,-999.0,54,0.00,,,-99.99,,2013-11-03 18:42:00,
2013-11-03 10:52:00,68.0,51.0,-100.00,SW,223,2.0,-999.0,54,0.00,,,-99.99,,2013-11-03 18:52:00,
2013-11-03 11:00:00,69.0,50.0,-100.00,SW,225,6.0,-999.0,50,0.00,,,-99.99,,2013-11-03 19:00:00,
2013-11-03 11:42:00,69.0,50.0,-100.00,SW,225,6.0,-999.0,50,0.00,,,-99.99,,2013-11-03 19:42:00,
2013-11-03 11:53:00,69.0,50.0,-100.00,SW,225,6.0,-999.0,50,0.00,,,-99.99,,2013-11-03 19:53:00,
2013-11-03 12:00:00,69.0,51.0,-100.00,SW,233,6.0,-999.0,51,0.00,,,-99.99,,2013-11-03 20:00:00,
2013-11-03 12:42:00,69.0,51.0,-100.00,SW,233,6.0,-999.0,51,0.00,,,-99.99,,2013-11-03 20:42:00,
2013-11-03 12:52:00,69.0,51.0,-100.00,SW,233,6.0,-999.0,51,0.00,,,-99.99,,2013-11-03 20:52:00,
2013-11-03 13:00:00,69.0,52.0,-100.00,SSW,208,5.0,-999.0,55,0.00,,,-99.99,,2013-11-03 21:00:00,
2013-11-03 13:43:00,69.0,52.0,-100.00,SSW,208,5.0,-999.0,55,0.00,,,-99.99,,2013-11-03 21:43:00,
2013-11-03 13:54:00,69.0,52.0,-100.00,SSW,208,5.0,-999.0,55,0.00,,,-99.99,,2013-11-03 21:54:00,
2013-11-03 14:00:00,70.0,53.0,-100.00,West,269,3.0,-999.0,55,0.00,,,-99.99,,2013-11-03 22:00:00,
2013-11-03 14:43:00,70.0,53.0,-100.00,West,269,3.0,-999.0,55,0.00,,,-99.99,,2013-11-03 22:43:00,
2013-11-03 14:52:00,70.0,53.0,-100.00,West,269,3.0,-999.0,55,0.00,,,-99.99,,2013-11-03 22:52:00,
2013-11-03 15:00:00,69.0,53.0,-100.00,SW,229,4.0,-999.0,55,0.00,,,-99.99,,2013-11-03 23:00:00,
2013-11-03 15:42:00,69.0,53.0,-100.00,SW,229,4.0,-999.0,55,0.00,,,-99.99,,2013-11-03 23:42:00,
2013-11-03 15:53:00,69.0,53.0,-100.00,SW,229,4.0,-999.0,55,0.00,,,-99.99,,2013-11-03 23:53:00,
2013-11-03 16:00:00,68.0,53.0,-100.00,WNW,283,2.0,-999.0,58,0.00,,,-99.99,,2013-11-04 00:00:00,
2013-11-03 16:42:00,68.0,53.0,-100.00,WNW,283,2.0,-999.0,58,0.00,,,-99.99,,2013-11-04 00:42:00,
2013-11-03 16:52:00,68.0,53.0,-100.00,WNW,283,2.0,-999.0,58,0.00,,,-99.99,,2013-11-04 00:52:00,
2013-11-03 17:00:00,64.0,52.0,-100.00,WSW,240,1.0,-999.0,63,0.00,,,-99.99,,2013-11-04 01:00:00,
2013-11-03 17:42:00,64.0,52.0,-100.00,WSW,240,1.0,-999.0,63,0.00,,,-99.99,,2013-11-04 01:42:00,
2013-11-03 17:52:00,64.0,52.0,-100.00,WSW,240,1.0,-999.0,63,0.00,,,-99.99,,2013-11-04 01:52:00,
2013-11-03 18:00:00,59.0,51.0,-100.00,NW,310,0.0,-999.0,73,0.00,,,-99.99,,2013-11-04 02:00:00,
2013-11-03 18:42:00,59.0,51.0,-100.00,NW,310,0.0,-999.0,73,0.00,,,-99.99,,2013-11-04 02:42:00,
2013-11-03 18:52:00,59.0,51.0,-100.00,NW,310,0.0,-999.0,73,0.00,,,-99.99,,2013-11-04 02:52:00,
2013-11-03 19:00:00,56.0,51.0,-100.00,NNE,33,1.0,-999.0,82,0.00,,,-99.99,,2013-11-04 03:00:00,
2013-11-03 19:44:00,56.0,51.0,-100.00,NNE,33,1.0,-999.0,82,0.00,,,-99.99,,2013-11-04 03:44:00,
2013-11-03 19:54:00,56.0,51.0,-100.00,NNE,33,1.0,-999.0,82,0.00,,,-99.99,,2013-11-04 03:54:00,
2013-11-03 20:00:00,53.0,49.0,-100.00,ESE,103,4.0,-999.0,84,0.00,,,-99.99,,2013-11-04 04:00:00,
2013-11-03 20:43:00,53.0,49.0,-100.00,ESE,103,4.0,-999.0,84,0.00,,,-99.99,,2013-11-04 04:43:00,
2013-11-03 20:52:00,53.0,49.0,-100.00,ESE,103,4.0,-999.0,84,0.00,,,-99.99,,2013-11-04 04:52:00,
2013-11-03 21:00:00,53.0,49.0,-100.00,NE,56,1.0,-999.0,85,0.00,,,-99.99,,2013-11-04 05:00:00,
2013-11-03 21:44:00,53.0,49.0,-100.00,NE,56,1.0,-999.0,85,0.00,,,-99.99,,2013-11-04 05:44:00,
2013-11-03 21:53:00,53.0,49.0,-100.00,NE,56,1.0,-999.0,85,0.00,,,-99.99,,2013-11-04 05:53:00,
2013-11-03 22:00:00,51.0,47.0,-100.00,ENE,75,3.0,-999.0,86,0.00,,,-99.99,,2013-11-04 06:00:00,
2013-11-03 22:42:00,51.0,47.0,-100.00,ENE,75,3.0,-999.0,86,0.00,,,-99.99,,2013-11-04 06:42:00,
2013-11-03 22:52:00,51.0,47.0,-100.00,ENE,75,3.0,-999.0,86,0.00,,,-99.99,,2013-11-04 06:52:00,
2013-11-03 23:00:00,53.0,49.0,-100.00,North,359,1.0,-999.0,85,0.00,,,-99.99,,2013-11-04 07:00:00,
2013-11-03 23:42:00,53.0,49.0,-100.00,North,359,1.0,-999.0,85,0.00,,,-99.99,,2013-11-04 07:42:00,
2013-11-03 23:52:00,53.0,49.0,-100.00,North,359,1.0,-999.0,85,0.00,,,-99.99,,2013-11-04 07:52:00,